createdAt,value
2023-01-20T00:01:19.157Z,5.92
2023-01-20T00:03:48.009Z,6.29
2023-01-20T00:06:15.398Z,6.29
2023-01-20T00:08:43.682Z,6.09
2023-01-20T00:11:12.367Z,5.83
2023-01-20T00:13:39.702Z,5.67
2023-01-20T00:16:08.068Z,5.53
2023-01-20T00:18:36.008Z,5.85
2023-01-20T00:21:06.685Z,6.33
2023-01-20T00:23:33.896Z,5.62
2023-01-20T00:26:08.241Z,6.56
2023-01-20T00:28:35.428Z,5.51
2023-01-20T00:31:12.057Z,5.42
2023-01-20T00:33:39.283Z,5.83
2023-01-20T00:36:07.099Z,5.49
2023-01-20T00:38:34.267Z,5.56
2023-01-20T00:41:01.487Z,5.05
2023-01-20T00:43:29.001Z,4.74
2023-01-20T00:45:56.145Z,5.71
2023-01-20T00:48:23.329Z,5.73
2023-01-20T00:50:50.766Z,6.28
2023-01-20T00:53:17.978Z,6.18
2023-01-20T00:55:45.176Z,6.41
2023-01-20T00:58:12.592Z,5.58
2023-01-20T01:00:39.992Z,6.73
2023-01-20T01:03:07.189Z,6.82
2023-01-20T01:05:34.614Z,7.04
2023-01-20T01:08:01.758Z,7.02
2023-01-20T01:10:28.891Z,7.77
2023-01-20T01:12:56.392Z,7.69
2023-01-20T01:15:23.605Z,6.93
2023-01-20T01:17:51.669Z,5.78
2023-01-20T01:20:19.351Z,7.10
2023-01-20T01:22:46.547Z,7.35
2023-01-20T01:25:13.949Z,6.78
2023-01-20T01:27:41.477Z,6.58
2023-01-20T01:30:08.915Z,5.95
2023-01-20T01:32:36.033Z,6.76
2023-01-20T01:35:03.519Z,7.43
2023-01-20T01:37:30.697Z,6.85
2023-01-20T01:39:57.840Z,7.10
2023-01-20T01:42:25.761Z,7.53
2023-01-20T01:45:11.500Z,6.45
2023-01-20T01:48:05.227Z,6.94
2023-01-20T01:50:37.324Z,6.54
2023-01-20T01:53:04.783Z,6.52
2023-01-20T01:55:33.546Z,6.81
2023-01-20T01:58:00.739Z,6.85
2023-01-20T02:00:28.199Z,5.84
2023-01-20T02:02:55.653Z,6.84
2023-01-20T02:05:23.076Z,7.03
2023-01-20T02:07:50.229Z,6.00
2023-01-20T02:10:17.606Z,6.39
2023-01-20T02:12:47.294Z,5.81
2023-01-20T02:15:14.559Z,5.01
2023-01-20T02:17:48.074Z,5.50
2023-01-20T02:20:34.709Z,4.74
2023-01-20T02:23:08.133Z,5.59
2023-01-20T02:25:41.791Z,5.55
2023-01-20T02:28:27.558Z,6.01
2023-01-20T02:30:55.009Z,5.69
2023-01-20T02:33:57.490Z,5.05
2023-01-20T02:36:27.934Z,6.23
2023-01-20T02:38:56.591Z,5.63
2023-01-20T02:41:25.724Z,5.68
2023-01-20T02:43:59.164Z,5.29
2023-01-20T02:46:39.955Z,4.99
2023-01-20T02:49:10.462Z,5.95
2023-01-20T02:51:42.119Z,5.41
2023-01-20T02:54:10.023Z,6.47
2023-01-20T02:56:37.197Z,6.73
2023-01-20T02:59:05.666Z,5.98
2023-01-20T03:01:43.040Z,6.31
2023-01-20T03:04:10.772Z,6.21
2023-01-20T03:06:38.837Z,4.42
2023-01-20T03:09:07.052Z,4.85
2023-01-20T03:11:36.189Z,5.69
2023-01-20T03:14:08.172Z,5.53
2023-01-20T03:16:35.382Z,5.27
2023-01-20T03:19:02.772Z,5.46
2023-01-20T03:21:30.193Z,6.30
2023-01-20T03:23:58.548Z,5.81
2023-01-20T03:26:25.737Z,5.51
2023-01-20T03:28:54.706Z,5.98
2023-01-20T03:31:23.072Z,7.04
2023-01-20T03:33:50.989Z,6.44
2023-01-20T03:36:18.655Z,6.04
2023-01-20T03:38:45.821Z,6.40
2023-01-20T03:41:13.029Z,7.05
2023-01-20T03:43:44.857Z,6.66
2023-01-20T03:46:14.749Z,6.08
2023-01-20T03:48:42.850Z,5.43
2023-01-20T03:51:18.682Z,6.46
2023-01-20T03:53:53.102Z,6.57
2023-01-20T03:56:23.381Z,6.18
2023-01-20T03:58:51.631Z,6.05
2023-01-20T04:01:23.321Z,5.82
2023-01-20T04:03:51.367Z,6.36
2023-01-20T04:06:19.759Z,5.53
2023-01-20T04:08:56.603Z,6.39
2023-01-20T04:11:24.362Z,7.15
2023-01-20T04:13:51.554Z,6.85
2023-01-20T04:16:18.878Z,6.90
2023-01-20T04:18:47.578Z,6.06
2023-01-20T04:21:18.934Z,6.92
2023-01-20T04:23:48.297Z,6.67
2023-01-20T04:26:15.426Z,6.39
2023-01-20T04:28:42.702Z,6.03
2023-01-20T04:31:28.779Z,6.60
2023-01-20T04:33:57.101Z,6.65
2023-01-20T04:36:24.564Z,7.41
2023-01-20T04:38:51.721Z,7.72
2023-01-20T04:41:18.981Z,7.69
2023-01-20T04:43:46.730Z,6.74
2023-01-20T04:46:14.596Z,6.93
2023-01-20T04:48:41.754Z,6.34
2023-01-20T04:51:09.686Z,5.91
2023-01-20T04:53:36.908Z,7.09
2023-01-20T04:56:04.132Z,6.75
2023-01-20T04:58:31.592Z,7.47
2023-01-20T05:01:01.205Z,7.59
2023-01-20T05:03:28.478Z,7.43
2023-01-20T05:05:55.890Z,7.79
2023-01-20T05:08:23.043Z,8.44
2023-01-20T05:10:50.184Z,7.46
2023-01-20T05:13:17.607Z,7.74
2023-01-20T05:15:44.891Z,8.13
2023-01-20T05:18:12.062Z,8.27
2023-01-20T05:20:39.637Z,7.63
2023-01-20T05:23:07.130Z,8.36
2023-01-20T05:25:34.325Z,7.63
2023-01-20T05:28:01.737Z,7.96
2023-01-20T05:30:28.908Z,8.21
2023-01-20T05:32:56.091Z,6.96
2023-01-20T05:35:32.771Z,7.59
2023-01-20T05:38:01.490Z,6.86
2023-01-20T05:40:28.954Z,7.05
2023-01-20T05:43:02.488Z,7.29
2023-01-20T05:45:30.115Z,7.44
2023-01-20T05:47:58.062Z,7.11
2023-01-20T05:50:26.160Z,6.09
2023-01-20T05:52:53.760Z,6.85
2023-01-20T05:55:21.077Z,7.84
2023-01-20T05:57:48.216Z,7.91
2023-01-20T06:00:18.721Z,7.36
2023-01-20T06:02:48.600Z,7.51
2023-01-20T06:05:16.073Z,7.68
2023-01-20T06:07:43.583Z,7.71
2023-01-20T06:10:11.286Z,7.10
2023-01-20T06:12:38.480Z,7.32
2023-01-20T06:15:06.865Z,6.96
2023-01-20T06:17:34.288Z,7.16
2023-01-20T06:20:01.441Z,6.77
2023-01-20T06:22:28.609Z,7.40
2023-01-20T06:24:56.024Z,6.40
2023-01-20T06:27:23.136Z,7.44
2023-01-20T06:29:50.963Z,6.74
2023-01-20T06:32:18.634Z,7.07
2023-01-20T06:34:46.176Z,6.43
2023-01-20T06:37:13.478Z,6.30
2023-01-20T06:39:40.911Z,6.03
2023-01-20T06:42:08.105Z,6.17
2023-01-20T06:44:35.307Z,6.09
2023-01-20T06:47:02.897Z,7.60
2023-01-20T06:49:30.262Z,6.70
2023-01-20T06:51:57.395Z,6.02
2023-01-20T06:54:24.878Z,6.64
2023-01-20T06:57:10.530Z,7.43
2023-01-20T06:59:37.972Z,7.70
2023-01-20T07:02:05.244Z,7.29
2023-01-20T07:04:32.523Z,7.67
2023-01-20T07:06:59.959Z,7.76
2023-01-20T07:09:27.145Z,7.82
2023-01-20T07:11:54.659Z,8.23
2023-01-20T07:14:22.248Z,8.49
2023-01-20T07:16:49.428Z,8.41
2023-01-20T07:19:16.626Z,8.37
2023-01-20T07:21:44.041Z,7.88
2023-01-20T07:24:11.258Z,8.15
2023-01-20T07:26:38.409Z,8.29
2023-01-20T07:29:05.917Z,8.17
2023-01-20T07:31:34.343Z,8.64
2023-01-20T07:34:01.574Z,7.86
2023-01-20T07:36:29.077Z,8.33
2023-01-20T07:38:56.326Z,7.91
2023-01-20T07:41:23.682Z,8.14
2023-01-20T07:43:51.931Z,8.20
2023-01-20T07:46:20.558Z,7.76
2023-01-20T07:48:47.855Z,7.62
2023-01-20T07:51:15.677Z,8.07
2023-01-20T07:53:49.327Z,8.48
2023-01-20T07:56:18.126Z,9.47
2023-01-20T07:58:45.502Z,8.82
2023-01-20T08:01:13.981Z,8.87
2023-01-20T08:03:43.180Z,8.65
2023-01-20T08:06:11.582Z,7.77
2023-01-20T08:08:38.871Z,7.74
2023-01-20T08:11:06.834Z,8.63
2023-01-20T08:13:34.088Z,8.42
2023-01-20T08:16:01.865Z,8.32
2023-01-20T08:18:29.615Z,8.52
2023-01-20T08:20:56.774Z,8.41
2023-01-20T08:23:24.040Z,8.19
2023-01-20T08:25:58.573Z,7.91
2023-01-20T08:28:26.321Z,7.50
2023-01-20T08:30:53.965Z,7.44
2023-01-20T08:33:21.156Z,8.59
2023-01-20T08:35:48.401Z,9.13
2023-01-20T08:38:15.820Z,9.52
2023-01-20T08:40:43.261Z,9.39
2023-01-20T08:43:10.395Z,8.76
2023-01-20T08:45:37.888Z,8.42
2023-01-20T08:48:05.136Z,8.51
2023-01-20T08:50:32.333Z,8.30
2023-01-20T08:52:59.765Z,8.59
2023-01-20T08:55:26.919Z,7.54
2023-01-20T08:57:54.066Z,7.38
2023-01-20T09:00:21.639Z,8.50
2023-01-20T09:02:48.819Z,8.38
2023-01-20T09:05:16.250Z,8.86
2023-01-20T09:07:45.167Z,9.06
2023-01-20T09:10:12.626Z,8.31
2023-01-20T09:12:39.793Z,7.67
2023-01-20T09:15:07.661Z,7.09
2023-01-20T09:17:35.791Z,7.88
2023-01-20T09:20:02.996Z,7.25
2023-01-20T09:22:30.535Z,6.88
2023-01-20T09:24:57.688Z,7.70
2023-01-20T09:27:25.476Z,7.85
2023-01-20T09:29:52.897Z,7.64
2023-01-20T09:32:20.046Z,8.48
2023-01-20T09:34:47.192Z,6.49
2023-01-20T09:37:33.344Z,7.40
2023-01-20T09:40:19.317Z,7.75
2023-01-20T09:43:23.840Z,8.57
2023-01-20T09:45:58.486Z,8.42
2023-01-20T09:49:05.807Z,7.02
2023-01-20T09:52:13.471Z,6.96
2023-01-20T09:54:45.554Z,8.07
2023-01-20T09:57:12.730Z,7.53
2023-01-20T09:59:44.810Z,8.05
2023-01-20T10:02:15.189Z,7.84
2023-01-20T10:04:43.828Z,6.57
2023-01-20T10:07:29.828Z,7.66
2023-01-20T10:10:00.223Z,7.60
2023-01-20T10:12:31.837Z,6.66
2023-01-20T10:15:18.079Z,7.15
2023-01-20T10:17:51.017Z,7.04
2023-01-20T10:20:18.509Z,7.84
2023-01-20T10:23:04.439Z,7.65
2023-01-20T10:25:42.044Z,6.37
2023-01-20T10:28:14.320Z,7.02
2023-01-20T10:30:41.912Z,6.70
2023-01-20T10:33:10.439Z,6.91
2023-01-20T10:35:38.933Z,7.65
2023-01-20T10:38:07.201Z,8.51
2023-01-20T10:40:37.070Z,7.62
2023-01-20T10:43:11.449Z,6.95
2023-01-20T10:45:38.853Z,6.14
2023-01-20T10:48:05.962Z,6.70
2023-01-20T10:50:51.904Z,6.72
2023-01-20T10:53:33.676Z,6.61
2023-01-20T10:56:03.382Z,7.53
2023-01-20T10:58:32.260Z,7.26
2023-01-20T11:01:00.267Z,7.67
2023-01-20T11:03:28.258Z,6.56
2023-01-20T11:05:55.684Z,6.94
2023-01-20T11:08:23.905Z,7.13
2023-01-20T11:10:55.323Z,7.63
2023-01-20T11:13:22.755Z,7.98
2023-01-20T11:15:52.039Z,8.23
2023-01-20T11:18:27.774Z,8.95
2023-01-20T11:21:02.932Z,7.96
2023-01-20T11:23:47.792Z,7.94
2023-01-20T11:26:20.495Z,8.33
2023-01-20T11:28:47.942Z,6.96
2023-01-20T11:31:15.566Z,8.43
2023-01-20T11:33:55.853Z,7.28
2023-01-20T11:36:27.612Z,7.20
2023-01-20T11:38:55.786Z,7.22
2023-01-20T11:41:23.418Z,6.99
2023-01-20T11:43:51.271Z,6.71
2023-01-20T11:46:21.574Z,6.94
2023-01-20T11:48:49.273Z,6.75
2023-01-20T11:51:20.911Z,7.64
2023-01-20T11:53:48.527Z,7.32
2023-01-20T11:56:19.941Z,8.58
2023-01-20T11:58:57.615Z,6.27
2023-01-20T12:01:29.167Z,6.98
2023-01-20T12:04:02.841Z,7.28
2023-01-20T12:06:31.279Z,7.01
2023-01-20T12:09:00.850Z,7.73
2023-01-20T12:11:35.120Z,7.12
2023-01-20T12:14:21.053Z,7.21
2023-01-20T12:16:58.617Z,7.68
2023-01-20T12:19:35.253Z,7.45
2023-01-20T12:22:04.306Z,7.30
2023-01-20T12:25:03.910Z,7.36
2023-01-20T12:27:31.120Z,7.71
2023-01-20T12:30:06.118Z,8.11
2023-01-20T12:32:33.399Z,8.28
2023-01-20T12:35:00.825Z,6.48
2023-01-20T12:37:27.957Z,6.28
2023-01-20T12:39:55.096Z,5.85
2023-01-20T12:42:25.537Z,6.44
2023-01-20T12:44:58.484Z,6.63
2023-01-20T12:47:30.664Z,6.01
2023-01-20T12:50:01.084Z,6.21
2023-01-20T12:52:42.006Z,6.71
2023-01-20T12:55:13.392Z,6.50
2023-01-20T12:57:53.616Z,6.76
2023-01-20T13:00:28.862Z,6.45
2023-01-20T13:03:08.043Z,5.56
2023-01-20T13:05:42.521Z,5.71
2023-01-20T13:08:23.253Z,5.43
2023-01-20T13:10:56.757Z,5.58
2023-01-20T13:13:24.150Z,5.03
2023-01-20T13:15:51.282Z,5.77
2023-01-20T13:18:18.449Z,5.86
2023-01-20T13:20:45.897Z,6.61
2023-01-20T13:23:14.374Z,6.12
2023-01-20T13:25:41.689Z,6.32
2023-01-20T13:28:18.794Z,6.38
2023-01-20T13:30:51.590Z,6.05
2023-01-20T13:33:29.132Z,5.80
2023-01-20T13:35:56.343Z,6.20
2023-01-20T13:38:33.052Z,6.04
2023-01-20T13:41:03.433Z,5.78
2023-01-20T13:43:36.452Z,5.79
2023-01-20T13:46:03.643Z,6.43
2023-01-20T13:48:31.975Z,4.84
2023-01-20T13:51:18.081Z,5.19
2023-01-20T13:53:45.504Z,4.84
2023-01-20T13:56:30.118Z,6.25
2023-01-20T13:58:58.323Z,5.72
2023-01-20T14:01:26.076Z,4.06
2023-01-20T14:04:06.901Z,4.36
2023-01-20T14:06:35.764Z,5.44
2023-01-20T14:09:03.457Z,5.57
2023-01-20T14:11:31.395Z,5.40
2023-01-20T14:13:59.774Z,5.13
2023-01-20T14:16:35.064Z,5.42
2023-01-20T14:19:05.511Z,4.40
2023-01-20T14:21:39.564Z,4.47
2023-01-20T14:24:22.507Z,3.92
2023-01-20T14:26:49.920Z,4.24
2023-01-20T14:29:17.719Z,4.59
2023-01-20T14:31:46.075Z,4.78
2023-01-20T14:34:13.742Z,5.19
2023-01-20T14:36:40.909Z,5.21
2023-01-20T14:39:12.809Z,5.02
2023-01-20T14:41:50.616Z,5.83
2023-01-20T14:44:28.242Z,6.14
2023-01-20T14:46:56.751Z,5.28
2023-01-20T14:49:26.025Z,4.41
2023-01-20T14:51:53.208Z,5.22
2023-01-20T14:54:30.661Z,4.45
2023-01-20T14:56:58.109Z,4.87
2023-01-20T14:59:25.808Z,4.20
2023-01-20T15:01:53.577Z,4.35
2023-01-20T15:04:21.137Z,5.05
2023-01-20T15:06:52.853Z,5.54
2023-01-20T15:09:33.218Z,5.05
2023-01-20T15:12:19.303Z,5.29
2023-01-20T15:14:56.527Z,5.09
2023-01-20T15:17:23.989Z,6.01
2023-01-20T15:19:51.115Z,5.99
2023-01-20T15:22:20.058Z,5.97
2023-01-20T15:24:47.853Z,5.76
2023-01-20T15:27:32.229Z,5.28
2023-01-20T15:30:13.036Z,5.14
2023-01-20T15:32:40.988Z,5.22
2023-01-20T15:35:11.783Z,4.61
2023-01-20T15:37:38.924Z,3.35
2023-01-20T15:40:06.555Z,3.12
2023-01-20T15:42:34.013Z,3.90
2023-01-20T15:45:01.167Z,5.06
2023-01-20T15:47:30.986Z,4.90
2023-01-20T15:49:58.596Z,4.91
2023-01-20T15:52:25.740Z,4.73
2023-01-20T15:54:52.886Z,4.71
2023-01-20T15:57:20.391Z,4.53
2023-01-20T15:59:49.742Z,4.75
2023-01-20T16:02:18.016Z,5.23
2023-01-20T16:04:45.535Z,4.72
2023-01-20T16:07:13.442Z,4.93
2023-01-20T16:09:40.693Z,3.73
2023-01-20T16:12:14.746Z,5.03
2023-01-20T16:14:42.070Z,4.81
2023-01-20T16:17:19.440Z,4.91
2023-01-20T16:19:46.925Z,4.57
2023-01-20T16:22:14.601Z,4.71
2023-01-20T16:24:41.979Z,3.49
2023-01-20T16:27:19.579Z,3.67
2023-01-20T16:29:47.531Z,4.63
2023-01-20T16:32:17.119Z,3.17
2023-01-20T16:34:45.839Z,3.85
2023-01-20T16:37:14.188Z,4.03
2023-01-20T16:39:41.463Z,4.39
2023-01-20T16:42:13.332Z,4.20
2023-01-20T16:44:41.133Z,3.76
2023-01-20T16:47:08.438Z,3.81
2023-01-20T16:49:35.769Z,3.60
2023-01-20T16:52:03.279Z,4.35
2023-01-20T16:54:30.451Z,4.35
2023-01-20T16:56:57.988Z,4.11
2023-01-20T16:59:26.010Z,4.46
2023-01-20T17:01:53.726Z,4.04
2023-01-20T17:04:21.142Z,4.37
2023-01-20T17:06:49.001Z,3.80
2023-01-20T17:09:16.260Z,4.07
2023-01-20T17:11:43.668Z,4.57
2023-01-20T17:14:11.874Z,4.11
2023-01-20T17:16:39.668Z,4.69
2023-01-20T17:19:07.882Z,3.92
2023-01-20T17:21:37.382Z,4.52
2023-01-20T17:24:05.260Z,3.89
2023-01-20T17:26:32.783Z,4.23
2023-01-20T17:29:06.862Z,5.57
2023-01-20T17:31:36.801Z,4.97
2023-01-20T17:34:05.194Z,4.99
2023-01-20T17:36:35.831Z,4.58
2023-01-20T17:39:04.215Z,5.58
2023-01-20T17:41:33.577Z,5.58
2023-01-20T17:44:01.178Z,5.58
2023-01-20T17:46:29.679Z,5.40
2023-01-20T17:48:58.409Z,4.83
2023-01-20T17:51:27.640Z,5.67
2023-01-20T17:53:55.176Z,5.73
2023-01-20T17:56:23.889Z,6.17
2023-01-20T17:58:51.308Z,5.96
2023-01-20T18:01:20.620Z,6.01
2023-01-20T18:03:49.920Z,5.71
2023-01-20T18:06:17.940Z,5.19
2023-01-20T18:08:49.657Z,4.71
2023-01-20T18:11:21.992Z,4.00
2023-01-20T18:13:50.751Z,4.21
2023-01-20T18:16:20.676Z,5.10
2023-01-20T18:18:49.792Z,5.00
2023-01-20T18:21:22.581Z,4.64
2023-01-20T18:23:52.825Z,5.88
2023-01-20T18:26:22.343Z,5.44
2023-01-20T18:28:50.554Z,5.66
2023-01-20T18:31:19.448Z,4.68
2023-01-20T18:33:49.019Z,5.35
2023-01-20T18:36:24.514Z,4.39
2023-01-20T18:38:53.645Z,3.66
2023-01-20T18:41:21.867Z,5.24
2023-01-20T18:43:50.565Z,4.04
2023-01-20T18:46:19.264Z,4.02
2023-01-20T18:48:52.222Z,4.36
2023-01-20T18:51:21.558Z,5.45
2023-01-20T18:53:59.775Z,4.60
2023-01-20T18:56:29.007Z,4.93
2023-01-20T18:58:57.341Z,4.69
2023-01-20T19:01:29.914Z,6.02
2023-01-20T19:03:58.071Z,4.36
2023-01-20T19:06:27.281Z,4.48
2023-01-20T19:08:56.600Z,3.99
2023-01-20T19:11:26.354Z,3.55
2023-01-20T19:13:54.170Z,3.51
2023-01-20T19:16:23.121Z,5.21
2023-01-20T19:18:52.891Z,4.41
2023-01-20T19:21:21.342Z,4.46
2023-01-20T19:23:53.527Z,4.97
2023-01-20T19:26:22.237Z,3.70
2023-01-20T19:28:56.246Z,3.68
2023-01-20T19:31:25.125Z,4.30
2023-01-20T19:33:53.390Z,3.88
2023-01-20T19:36:21.443Z,4.67
2023-01-20T19:38:54.330Z,4.97
2023-01-20T19:41:23.856Z,4.90
2023-01-20T19:43:57.552Z,4.54
2023-01-20T19:46:30.439Z,4.86
2023-01-20T19:48:59.799Z,4.15
2023-01-20T19:51:28.708Z,4.35
2023-01-20T19:54:00.590Z,4.23
2023-01-20T19:56:52.984Z,3.96
2023-01-20T19:59:21.699Z,4.30
2023-01-20T20:01:50.746Z,3.89
2023-01-20T20:04:21.038Z,4.00
2023-01-20T20:06:49.532Z,4.30
2023-01-20T20:09:18.995Z,5.11
2023-01-20T20:11:48.362Z,4.11
2023-01-20T20:14:18.746Z,3.82
2023-01-20T20:16:49.637Z,4.33
2023-01-20T20:19:19.144Z,4.37
2023-01-20T20:21:48.392Z,3.62
2023-01-20T20:24:19.066Z,4.57
2023-01-20T20:26:48.549Z,4.20
2023-01-20T20:29:19.864Z,4.24
2023-01-20T20:31:52.934Z,3.85
2023-01-20T20:34:21.455Z,4.39
2023-01-20T20:36:50.053Z,4.46
2023-01-20T20:39:18.572Z,4.80
2023-01-20T20:41:47.052Z,4.39
2023-01-20T20:44:16.904Z,4.42
2023-01-20T20:46:45.302Z,4.19
2023-01-20T20:49:15.272Z,4.85
2023-01-20T20:51:45.243Z,4.90
2023-01-20T20:54:15.847Z,5.76
2023-01-20T20:56:45.564Z,5.95
2023-01-20T20:59:13.586Z,5.08
2023-01-20T21:01:41.951Z,4.68
2023-01-20T21:04:12.130Z,3.99
2023-01-20T21:06:41.069Z,5.05
2023-01-20T21:09:09.565Z,5.05
2023-01-20T21:11:38.728Z,5.24
2023-01-20T21:14:07.617Z,5.54
2023-01-20T21:16:38.337Z,4.37
2023-01-20T21:19:07.099Z,5.44
2023-01-20T21:21:35.461Z,4.97
2023-01-20T21:24:03.540Z,4.33
2023-01-20T21:26:32.556Z,3.97
2023-01-20T21:29:04.405Z,3.49
2023-01-20T21:31:32.452Z,5.21
2023-01-20T21:34:03.777Z,4.26
2023-01-20T21:36:34.591Z,5.20
2023-01-20T21:39:02.709Z,6.01
2023-01-20T21:41:30.187Z,5.93
2023-01-20T21:44:15.826Z,6.27
2023-01-20T21:46:43.517Z,6.75
2023-01-20T21:49:30.299Z,6.13
2023-01-20T21:52:16.945Z,6.83
2023-01-20T21:54:45.838Z,6.30
2023-01-20T21:57:14.828Z,7.05
2023-01-20T21:59:42.660Z,6.67
2023-01-20T22:02:10.729Z,6.52
2023-01-20T22:04:39.699Z,6.90
2023-01-20T22:07:06.903Z,6.24
2023-01-20T22:09:34.096Z,6.89
2023-01-20T22:12:01.660Z,6.85
2023-01-20T22:14:28.966Z,5.80
2023-01-20T22:16:56.182Z,6.77
2023-01-20T22:19:23.730Z,5.43
2023-01-20T22:21:50.957Z,6.66
2023-01-20T22:24:18.125Z,5.80
2023-01-20T22:26:46.251Z,5.88
2023-01-20T22:29:13.472Z,6.55
2023-01-20T22:31:40.783Z,6.71
2023-01-20T22:34:09.174Z,5.94
2023-01-20T22:36:36.910Z,6.09
2023-01-20T22:39:05.369Z,6.02
2023-01-20T22:41:33.130Z,5.98
2023-01-20T22:44:00.280Z,5.49
2023-01-20T22:46:27.835Z,5.54
2023-01-20T22:48:58.649Z,5.95
2023-01-20T22:51:26.932Z,5.64
2023-01-20T22:53:55.229Z,5.86
2023-01-20T22:56:23.257Z,6.29
2023-01-20T22:58:50.667Z,6.77
2023-01-20T23:01:22.352Z,5.33
2023-01-20T23:03:53.161Z,5.36
2023-01-20T23:06:20.597Z,4.40
2023-01-20T23:08:47.767Z,5.76
2023-01-20T23:11:15.547Z,5.42
2023-01-20T23:13:43.165Z,5.86
2023-01-20T23:16:10.922Z,5.69
2023-01-20T23:18:38.129Z,5.01
2023-01-20T23:21:06.581Z,6.03
2023-01-20T23:23:33.764Z,6.18
2023-01-20T23:26:02.121Z,5.98
2023-01-20T23:28:29.568Z,4.59
2023-01-20T23:31:00.816Z,5.68
2023-01-20T23:33:28.119Z,6.68
2023-01-20T23:35:55.554Z,5.27
2023-01-20T23:38:22.689Z,5.82
2023-01-20T23:40:49.843Z,4.81
2023-01-20T23:43:17.305Z,5.63
2023-01-20T23:45:44.494Z,4.91
2023-01-20T23:48:11.664Z,4.45
2023-01-20T23:50:39.178Z,5.32
2023-01-20T23:53:06.467Z,4.78
2023-01-20T23:55:33.592Z,4.58
2023-01-20T23:58:01.030Z,4.63
